Au Sable Forks, New York
Current Conditions -  °F | °C
As of 11:53 AM on Tuesday 27 Jan 2015 (Local Time) from KPBG Reporting Station
Overcast Overcast  
Wind Chill: -24°   Ceiling: 10000
Heat Index: -13°   Visibility: 10mi
Dew Point: -20°   Wind: 24mph
Humidity: 56%   Direction: 350°N
Pressure: 29.99"   Gusts: 32mph
Location:  44.44°N, 73.67°W
Report Text: KPBG 271653Z AUTO 35021G28KT 10SM OVC100 M13/M20 A2999 RMK AO2 PK WND 01030/1624 SLP161 T11281200
Loading
Personal Weather Stations






























Interactive Weather Map New forecast layout! Learn more

10-Day Weather Forecast

Advertisements
Track Severe Weather on mobile